METAR Data
IDs: Format: Raw Decoded Include TAF

Data at: 1956 UTC 17 Nov 2019

KHFJ 171935Z AUTO 25009KT 10SM CLR 11/01 A2996 RMK AO2
KHFJ 171915Z AUTO 23009KT 10SM SCT050 SCT075 SCT095 10/00 A2996 RMK AO2
KHFJ 171855Z AUTO 25009KT 10SM SCT065 SCT085 OVC110 09/00 A2997 RMK AO2
KHFJ 171835Z AUTO 26008KT 10SM OVC110 09/00 A2999 RMK AO2
KHFJ 171815Z AUTO 25010KT 10SM SCT100 BKN120 08/00 A2999 RMK AO2
KHFJ 171755Z AUTO 23010KT 10SM SCT070 BKN090 BKN110 08/00 A3000 RMK AO2
KHFJ 171735Z AUTO 23009KT 10SM BKN070 OVC090 08/00 A3000 RMK AO2
KHFJ 171715Z AUTO 24007KT 10SM BKN070 OVC080 07/M01 A3000 RMK AO2
KHFJ 171655Z AUTO 24008KT 10SM SCT065 OVC090 08/M02 A3002 RMK AO2
KHFJ 171635Z AUTO 22007KT 10SM OVC100 08/M01 A3002 RMK AO2
KHFJ 171615Z AUTO 22009KT 10SM SCT110 07/M02 A3003 RMK AO2
KHFJ 171555Z AUTO 22010KT 10SM SCT100 SCT120 07/M02 A3003 RMK AO2
KHFJ 171535Z AUTO 22008KT 10SM SCT100 BKN120 07/M02 A3003 RMK AO2
KHFJ 171515Z AUTO 21009KT 10SM CLR 07/M02 A3003 RMK AO2
KHFJ 171455Z AUTO 20007KT 10SM CLR 06/M02 A3003 RMK AO2
KHFJ 171435Z AUTO 20006KT 10SM CLR 06/M01 A3003 RMK AO2
KHFJ 171415Z AUTO 20005KT 10SM CLR 06/M01 A3004 RMK AO2
KHFJ 171355Z AUTO 19005KT 10SM CLR 05/M02 A3004 RMK AO2
KHFJ 171335Z AUTO 21005KT 10SM CLR 05/M01 A3004 RMK AO2
KHFJ 171315Z AUTO 19005KT 10SM CLR 05/M02 A3004 RMK AO2
KHFJ 171255Z AUTO 15003KT 10SM CLR 05/M01 A3003 RMK AO2
KHFJ 171235Z AUTO 17003KT 10SM CLR 05/M01 A3004 RMK AO2
KHFJ 171215Z AUTO 17003KT 10SM CLR 05/M01 A3004 RMK AO2
KHFJ 171155Z AUTO 00000KT 10SM CLR 05/M01 A3003 RMK AO2
KHFJ 171135Z AUTO 16004KT 10SM CLR 05/M01 A3003 RMK AO2
KHFJ 171115Z AUTO 14005KT 10SM CLR 05/M01 A3003 RMK AO2
KHFJ 171055Z AUTO 15005KT 10SM CLR 05/M01 A3004 RMK AO2
KHFJ 171035Z AUTO 14004KT 10SM CLR 05/M01 A3005 RMK AO2
KHFJ 171015Z AUTO 16005KT 10SM CLR 05/00 A3006 RMK AO2
KHFJ 170955Z AUTO 14004KT 10SM CLR 05/M01 A3005 RMK AO2
KHFJ 170935Z AUTO 15004KT 10SM CLR 05/M01 A3005 RMK AO2
KHFJ 170915Z AUTO 13003KT 10SM CLR 05/M01 A3006 RMK AO2
KHFJ 170855Z AUTO 00000KT 10SM CLR 05/M01 A3006 RMK AO2
KHFJ 170835Z AUTO 16004KT 10SM CLR 05/M01 A3006 RMK AO2
KHFJ 170815Z AUTO 17004KT 10SM CLR 05/M01 A3008 RMK AO2
KHFJ 170755Z AUTO 17003KT 10SM CLR 06/M01 A3008 RMK AO2
KHFJ 170735Z AUTO 00000KT 10SM CLR 06/M01 A3008 RMK AO2
KHFJ 170715Z AUTO 15004KT 10SM CLR 06/M01 A3008 RMK AO2
KHFJ 170655Z AUTO 15003KT 10SM CLR 06/M01 A3008 RMK AO2
KHFJ 170635Z AUTO 15003KT 10SM CLR 06/M01 A3008 RMK AO2
KHFJ 170615Z AUTO 15004KT 10SM CLR 06/M01 A3008 RMK AO2
KHFJ 170555Z AUTO 15005KT 10SM CLR 06/M02 A3008 RMK AO2
KHFJ 170535Z AUTO 14005KT 10SM CLR 05/M02 A3008 RMK AO2
KHFJ 170515Z AUTO 13006KT 10SM CLR 06/M02 A3008 RMK AO2
KHFJ 170455Z AUTO 14004KT 10SM CLR 06/M02 A3008 RMK AO2
KHFJ 170435Z AUTO 14007KT 10SM CLR 05/M02 A3008 RMK AO2
KHFJ 170415Z AUTO 13006KT 10SM CLR 06/M02 A3008 RMK AO2
KHFJ 170355Z AUTO 15005KT 10SM CLR 06/M02 A3009 RMK AO2
KHFJ 170335Z AUTO 14007KT 10SM CLR 06/M02 A3008 RMK AO2
KHFJ 170315Z AUTO 14006KT 10SM CLR 07/M02 A3008 RMK AO2
KHFJ 170255Z AUTO 14007KT 10SM CLR 07/M01 A3008 RMK AO2
KHFJ 170235Z AUTO 14008KT 10SM CLR 07/M01 A3007 RMK AO2
KHFJ 170215Z AUTO 13009KT 10SM CLR 06/M01 A3007 RMK AO2
KHFJ 170155Z AUTO 13006KT 10SM CLR 06/M02 A3008 RMK AO2
KHFJ 170135Z AUTO 12007KT 10SM CLR 07/M02 A3008 RMK AO2
KHFJ 170115Z AUTO 12006KT 10SM CLR 07/M02 A3008 RMK AO2
KHFJ 170055Z AUTO 11008KT 10SM CLR 07/M02 A3008 RMK AO2
KHFJ 170035Z AUTO 11008KT 10SM CLR 08/M02 A3008 RMK AO2
KHFJ 170015Z AUTO 12007KT 10SM CLR 08/M02 A3009 RMK AO2
KHFJ 162355Z AUTO 11007KT 10SM CLR 08/M02 A3008 RMK AO2
KHFJ 162335Z AUTO 11006KT 10SM CLR 09/M03 A3008 RMK AO2
KHFJ 162315Z AUTO 11006KT 10SM CLR 10/M03 A3008 RMK AO2
KHFJ 162255Z AUTO 12006KT 10SM CLR 11/M03 A3008 RMK AO2
KHFJ 162235Z AUTO 13008KT 10SM CLR 12/M03 A3008 RMK AO2
KHFJ 162215Z AUTO 14009KT 10SM CLR 13/M03 A3009 RMK AO2
KHFJ 162155Z AUTO 13007KT 10SM CLR 13/M03 A3010 RMK AO2
KHFJ 162135Z AUTO 13007KT 10SM CLR 13/M03 A3010 RMK AO2
KHFJ 162115Z AUTO 13008KT 10SM CLR 14/M03 A3010 RMK AO2
KHFJ 162055Z AUTO 13008KT 10SM CLR 13/M03 A3011 RMK AO2
KHFJ 162035Z AUTO 14007KT 10SM CLR 13/M02 A3013 RMK AO2
KHFJ 162015Z AUTO 15007KT 10SM CLR 13/M02 A3013 RMK AO2
KHFJ 161955Z AUTO 17007KT 10SM CLR 13/M03 A3015 RMK AO2
KHFJ 161935Z AUTO 17004KT 10SM CLR 13/M03 A3015 RMK AO2
KHFJ 161915Z AUTO 16004KT 10SM CLR 13/M03 A3016 RMK AO2
KHFJ 161855Z AUTO 17006KT 10SM CLR 12/M04 A3018 RMK AO2
KHFJ 161835Z AUTO 19006KT 10SM CLR 12/M04 A3018 RMK AO2
KHFJ 161815Z AUTO 15006KT 10SM CLR 12/M04 A3020 RMK AO2
KHFJ 161755Z AUTO 15006KT 10SM CLR 11/M04 A3021 RMK AO2
KHFJ 161735Z AUTO 14006KT 10SM CLR 11/M04 A3022 RMK AO2
KHFJ 161715Z AUTO 14008KT 10SM CLR 10/M03 A3024 RMK AO2
KHFJ 161655Z AUTO 12006KT 10SM CLR 10/M02 A3025 RMK AO2
KHFJ 161635Z AUTO 14007KT 10SM CLR 09/M02 A3026 RMK AO2
KHFJ 161615Z AUTO 14006KT 10SM CLR 08/M01 A3027 RMK AO2
KHFJ 161555Z AUTO 13007KT 10SM CLR 07/M02 A3027 RMK AO2
KHFJ 161535Z AUTO 12006KT 10SM CLR 06/M02 A3027 RMK AO2
KHFJ 161515Z AUTO 13006KT 10SM CLR 05/M02 A3027 RMK AO2
KHFJ 161455Z AUTO 13006KT 10SM CLR 04/M02 A3027 RMK AO2
KHFJ 161435Z AUTO 13006KT 10SM CLR 03/M02 A3027 RMK AO2
KHFJ 161415Z AUTO 12006KT 10SM CLR 01/M03 A3026 RMK AO2
KHFJ 161355Z AUTO 12008KT 10SM 01/M03 A3026 RMK AO2
KHFJ 161330Z AUTO 12007KT 10SM CLR 00/M03 A3026 RMK AO2
KHFJ 161320Z AUTO 11007KT 10SM CLR 00/M03 A3026 RMK AO2
KHFJ 161255Z AUTO 12008KT 10SM CLR 00/M03 A3026 RMK AO2
KHFJ 161235Z AUTO 12008KT 10SM CLR 00/M03 A3026 RMK AO2
KHFJ 161215Z AUTO 12007KT 10SM CLR 00/M03 A3025 RMK AO2
KHFJ 161155Z AUTO 12007KT 10SM CLR 00/M03 A3025 RMK AO2
KHFJ 161135Z AUTO 11007KT 10SM CLR 00/M03 A3026 RMK AO2
KHFJ 161115Z AUTO 12007KT 10SM CLR 00/M04 A3026 RMK AO2
KHFJ 161055Z AUTO 12006KT 10SM CLR 00/M04 A3026 RMK AO2
KHFJ 161035Z AUTO 12005KT 10SM CLR 00/M04 A3026 RMK AO2
KHFJ 161015Z AUTO 13004KT 10SM CLR 00/M03 A3026 RMK AO2
KHFJ 160935Z AUTO 13005KT 10SM CLR 00/M03 A3026 RMK AO2
KHFJ 160915Z AUTO 12005KT 10SM CLR 00/M03 A3027 RMK AO2
KHFJ 160855Z AUTO 12006KT 10SM CLR 00/M03 A3026 RMK AO2
KHFJ 160835Z AUTO 11007KT 10SM CLR 00/M04 A3027 RMK AO2
KHFJ 160815Z AUTO 11006KT 10SM CLR 01/M04 A3027 RMK AO2